Time;durP1;ratioP1;P1;durP2;ratioP2;P2;SDS_P1;SDS_P2;PMS_P1;PMS_P2;Temp;Humidity;BMP_temperature;BMP_pressure;BME280_temperature;BME280_humidity;BME280_pressure;Samples;Min_cycle;Max_cycle;Signal;HPM_P1;HPM_P2
2022/05/22 00:00:30;;;;;;;12.48;7.43;;;;;;;;;;4816864;29;20043;-73
2022/05/22 00:03:00;;;;;;;14.88;8.57;;;;;;;;;;4816018;29;20062;-72
2022/05/22 00:05:31;;;;;;;8.80;6.10;;;;;;;;;;4817175;29;20046;-72
2022/05/22 00:08:02;;;;;;;10.48;5.88;;;;;;;;;;4816127;29;20066;-73
2022/05/22 00:10:32;;;;;;;8.38;6.25;;;;;;;;;;4816844;29;20059;-73
2022/05/22 00:13:02;;;;;;;12.93;7.15;;;;;;;;;;4816023;29;20055;-72
2022/05/22 00:15:32;;;;;;;10.40;5.32;;;;;;;;;;4817633;29;20519;-72
2022/05/22 00:18:03;;;;;;;7.35;4.93;;;;;;;;;;4817421;29;20058;-72
2022/05/22 00:20:32;;;;;;;7.93;5.63;;;;;;;;;;4817766;29;20050;-72
2022/05/22 00:23:02;;;;;;;12.85;7.63;;;;;;;;;;4817252;29;20069;-72
2022/05/22 00:25:33;;;;;;;8.90;6.47;;;;;;;;;;4816187;29;20050;-72
2022/05/22 00:28:04;;;;;;;9.32;4.63;;;;;;;;;;4816895;29;20475;-72
2022/05/22 00:30:34;;;;;;;7.50;4.20;;;;;;;;;;4816082;29;20054;-72
2022/05/22 00:33:05;;;;;;;8.93;5.90;;;;;;;;;;4817099;29;20051;-71
2022/05/22 00:35:36;;;;;;;9.60;5.57;;;;;;;;;;4817127;29;20054;-72
2022/05/22 00:38:06;;;;;;;7.15;4.60;;;;;;;;;;4817260;29;20506;-72
2022/05/22 00:40:35;;;;;;;7.45;4.78;;;;;;;;;;4816948;29;20050;-71
2022/05/22 00:43:05;;;;;;;6.97;4.07;;;;;;;;;;4817586;29;20051;-72
2022/05/22 00:45:36;;;;;;;6.70;4.13;;;;;;;;;;4814763;29;20404;-72
2022/05/22 00:48:07;;;;;;;8.00;3.90;;;;;;;;;;4815051;29;20054;-72
2022/05/22 00:50:36;;;;;;;5.82;4.00;;;;;;;;;;4817044;29;20092;-72
2022/05/22 00:53:07;;;;;;;8.23;4.78;;;;;;;;;;4815200;29;20076;-72
2022/05/22 00:55:37;;;;;;;7.97;5.35;;;;;;;;;;4816732;29;20065;-72
2022/05/22 00:58:22;;;;;;;9.05;5.10;;;;;;;;;;4824043;29;20150;-71
2022/05/22 01:00:53;;;;;;;9.63;5.55;;;;;;;;;;4834933;29;20371;-72
2022/05/22 01:03:29;;;;;;;8.35;4.90;;;;;;;;;;4835220;29;20058;-72
2022/05/22 01:06:09;;;;;;;7.07;4.65;;;;;;;;;;4817663;29;20057;-72
2022/05/22 01:08:40;;;;;;;6.75;4.65;;;;;;;;;;4834875;29;20050;-71
2022/05/22 01:11:16;;;;;;;8.07;5.40;;;;;;;;;;4834614;29;20482;-72
2022/05/22 01:13:55;;;;;;;9.82;6.13;;;;;;;;;;4818965;29;20363;-72
2022/05/22 01:16:26;;;;;;;8.45;5.32;;;;;;;;;;4822145;29;20065;-71
2022/05/22 01:18:57;;;;;;;7.13;5.47;;;;;;;;;;4838546;29;20061;-71
2022/05/22 01:21:36;;;;;;;8.20;5.18;;;;;;;;;;4821000;29;20639;-72
2022/05/22 01:24:08;;;;;;;5.30;4.78;;;;;;;;;;4838661;29;20065;-72
2022/05/22 01:26:38;;;;;;;6.53;4.43;;;;;;;;;;4821457;29;20061;-71
2022/05/22 01:29:20;;;;;;;6.88;4.22;;;;;;;;;;4821285;29;20080;-72
2022/05/22 01:31:51;;;;;;;7.47;4.25;;;;;;;;;;4821241;29;20058;-71
2022/05/22 01:34:21;;;;;;;9.43;4.70;;;;;;;;;;4821138;29;20054;-71
2022/05/22 01:36:51;;;;;;;15.73;4.90;;;;;;;;;;4820827;29;20061;-72
2022/05/22 01:39:21;;;;;;;12.85;6.50;;;;;;;;;;4821840;29;20085;-72
2022/05/22 01:41:55;;;;;;;11.85;6.50;;;;;;;;;;4820693;29;20061;-71
2022/05/22 01:44:26;;;;;;;9.20;6.78;;;;;;;;;;4820933;29;20053;-71
2022/05/22 01:46:57;;;;;;;7.72;6.45;;;;;;;;;;4817841;29;20057;-71
2022/05/22 01:49:29;;;;;;;8.77;6.45;;;;;;;;;;4817623;29;20502;-71
2022/05/22 01:52:00;;;;;;;;;;;;;;;;;;4817995;29;20058;-72
2022/05/22 01:54:30;;;;;;;11.35;6.43;;;;;;;;;;4821548;29;20282;-71
2022/05/22 01:57:00;;;;;;;12.95;8.10;;;;;;;;;;4837577;29;20418;-71
2022/05/22 01:59:30;;;;;;;15.43;7.25;;;;;;;;;;4803276;29;20063;-71
2022/05/22 02:02:15;;;;;;;11.23;7.00;;;;;;;;;;4801966;29;20073;-71
2022/05/22 02:04:45;;;;;;;7.55;5.57;;;;;;;;;;4802355;29;20050;-71
2022/05/22 02:10:09;;;;;;;8.82;5.53;;;;;;;;;;4802317;29;20058;-72
2022/05/22 02:12:48;;;;;;;11.77;5.80;;;;;;;;;;4802708;29;20058;-71
2022/05/22 02:15:19;;;;;;;10.05;5.90;;;;;;;;;;4820563;29;20058;-72
2022/05/22 02:17:50;;;;;;;13.30;6.10;;;;;;;;;;4788207;29;20073;-71
2022/05/22 02:20:21;;;;;;;10.70;5.82;;;;;;;;;;4802240;29;20062;-71
2022/05/22 02:22:54;;;;;;;11.48;7.13;;;;;;;;;;4819561;29;20058;-71
2022/05/22 02:25:30;;;;;;;11.63;6.13;;;;;;;;;;4818086;29;20058;-72
2022/05/22 02:28:08;;;;;;;9.23;5.70;;;;;;;;;;4803068;29;20429;-72
2022/05/22 02:30:45;;;;;;;8.20;5.32;;;;;;;;;;4801687;29;20066;-72
2022/05/22 02:33:16;;;;;;;12.90;6.63;;;;;;;;;;4788250;29;20074;-72
2022/05/22 02:35:57;;;;;;;9.38;6.20;;;;;;;;;;4814931;29;20050;-71
2022/05/22 02:38:34;;;;;;;11.82;6.50;;;;;;;;;;4802419;29;20062;-71
2022/05/22 02:41:12;;;;;;;10.23;5.88;;;;;;;;;;4802498;29;20063;-71
2022/05/22 02:43:47;;;;;;;7.00;5.40;;;;;;;;;;4801888;29;20066;-72
2022/05/22 02:46:19;;;;;;;11.38;6.18;;;;;;;;;;4819245;29;20054;-71
2022/05/22 02:48:52;;;;;;;12.93;6.20;;;;;;;;;;4801286;29;20065;-71
2022/05/22 02:51:35;;;;;;;13.75;6.43;;;;;;;;;;4801630;29;20054;-71
2022/05/22 02:54:06;;;;;;;12.60;6.95;;;;;;;;;;4818995;29;20411;-72
2022/05/22 02:56:40;;;;;;;13.77;7.22;;;;;;;;;;4820653;29;20427;-72
2022/05/22 02:59:32;;;;;;;12.88;7.95;;;;;;;;;;4818655;29;20070;-72
2022/05/22 03:02:30;;;;;;;10.27;7.05;;;;;;;;;;4807735;29;20491;-71
2022/05/22 03:05:01;;;;;;;13.00;7.20;;;;;;;;;;4817271;29;20058;-72
2022/05/22 03:07:34;;;;;;;15.35;7.40;;;;;;;;;;4801167;29;20537;-71
2022/05/22 03:10:24;;;;;;;18.30;7.13;;;;;;;;;;4802671;29;20423;-72
2022/05/22 03:12:54;;;;;;;10.30;6.75;;;;;;;;;;4802072;29;20070;-71
2022/05/22 03:15:29;;;;;;;9.30;7.13;;;;;;;;;;4817235;29;20426;-72
2022/05/22 03:17:59;;;;;;;13.65;7.20;;;;;;;;;;4801729;29;20073;-72
2022/05/22 03:20:33;;;;;;;8.98;6.47;;;;;;;;;;4815735;29;20427;-72
2022/05/22 03:23:04;;;;;;;12.38;6.88;;;;;;;;;;4816771;29;20065;-72
2022/05/22 03:25:33;;;;;;;12.75;7.50;;;;;;;;;;4802352;29;20058;-71
2022/05/22 03:28:04;;;;;;;10.80;7.03;;;;;;;;;;4801967;29;20066;-72
2022/05/22 03:30:38;;;;;;;13.73;7.40;;;;;;;;;;4800848;29;20073;-71
2022/05/22 03:33:13;;;;;;;10.20;7.85;;;;;;;;;;4801533;29;20062;-72
2022/05/22 03:35:51;;;;;;;13.27;7.60;;;;;;;;;;4816032;29;20054;-71
2022/05/22 03:38:21;;;;;;;13.97;8.20;;;;;;;;;;4817910;29;20058;-72
2022/05/22 03:41:00;;;;;;;13.95;8.18;;;;;;;;;;4815083;29;20058;-71
2022/05/22 03:43:35;;;;;;;12.98;8.73;;;;;;;;;;4816384;29;20530;-71
2022/05/22 03:46:16;;;;;;;11.23;8.07;;;;;;;;;;4801024;29;20069;-71
2022/05/22 03:48:48;;;;;;;13.75;8.55;;;;;;;;;;4801312;29;20062;-71
2022/05/22 03:51:19;;;;;;;13.23;8.70;;;;;;;;;;4800784;29;20074;-71
2022/05/22 03:53:49;;;;;;;14.55;8.35;;;;;;;;;;4801237;29;20443;-71
2022/05/22 03:56:27;;;;;;;14.23;8.93;;;;;;;;;;4800589;29;20294;-72
2022/05/22 03:58:57;;;;;;;15.50;9.43;;;;;;;;;;4822907;29;20069;-71
2022/05/22 04:01:29;;;;;;;13.40;9.20;;;;;;;;;;4830577;29;20459;-71
2022/05/22 04:04:01;;;;;;;11.13;8.40;;;;;;;;;;4816242;29;20073;-71
2022/05/22 04:06:31;;;;;;;16.90;9.30;;;;;;;;;;4817792;29;20054;-72
2022/05/22 04:09:03;;;;;;;16.13;10.63;;;;;;;;;;4818588;29;20515;-70
2022/05/22 04:11:53;;;;;;;15.30;10.23;;;;;;;;;;4818108;29;20070;-71
2022/05/22 04:14:24;;;;;;;12.60;10.32;;;;;;;;;;4815536;29;20054;-72
2022/05/22 04:17:04;;;;;;;13.43;10.00;;;;;;;;;;4815812;29;20075;-75
2022/05/22 04:19:37;;;;;;;16.20;9.05;;;;;;;;;;4816106;29;20526;-72
2022/05/22 04:22:11;;;;;;;13.32;9.48;;;;;;;;;;4815344;29;20423;-72
2022/05/22 04:27:41;;;;;;;15.98;10.55;;;;;;;;;;4815193;29;20058;-71
2022/05/22 04:30:18;;;;;;;16.42;9.25;;;;;;;;;;4815482;29;20058;-72
2022/05/22 04:32:57;;;;;;;8.90;7.97;;;;;;;;;;4815818;29;20061;-72
2022/05/22 04:35:29;;;;;;;10.82;8.60;;;;;;;;;;4830676;29;20093;-72
2022/05/22 04:38:04;;;;;;;10.10;8.02;;;;;;;;;;4815312;29;20058;-71
2022/05/22 04:40:35;;;;;;;15.20;8.90;;;;;;;;;;4814788;29;20062;-72
2022/05/22 04:43:06;;;;;;;14.50;9.65;;;;;;;;;;4815922;29;20058;-71
2022/05/22 04:45:40;;;;;;;15.60;9.88;;;;;;;;;;4814340;29;20054;-72
2022/05/22 04:48:20;;;;;;;17.70;10.52;;;;;;;;;;4814896;29;20054;-72
2022/05/22 04:50:59;;;;;;;15.90;11.27;;;;;;;;;;4815384;29;20058;-71
2022/05/22 04:53:36;;;;;;;19.05;13.00;;;;;;;;;;4815806;29;20061;-72
2022/05/22 04:56:16;;;;;;;13.20;10.82;;;;;;;;;;4815832;29;20054;-72
2022/05/22 04:58:51;;;;;;;19.48;12.55;;;;;;;;;;4817597;29;20050;-71
2022/05/22 05:01:24;;;;;;;21.13;14.68;;;;;;;;;;4817939;29;20060;-71
2022/05/22 05:04:04;;;;;;;18.85;13.80;;;;;;;;;;4834026;29;20054;-71
2022/05/22 05:06:56;;;;;;;17.98;9.75;;;;;;;;;;4817847;29;20062;-72
2022/05/22 05:09:45;;;;;;;15.38;8.68;;;;;;;;;;4838107;29;20065;-72
2022/05/22 05:12:25;;;;;;;11.23;8.23;;;;;;;;;;4833139;29;20057;-72
2022/05/22 05:14:55;;;;;;;9.70;8.70;;;;;;;;;;4834251;29;20061;-72
2022/05/22 05:17:25;;;;;;;11.25;8.38;;;;;;;;;;4802657;29;20062;-72
2022/05/22 05:19:55;;;;;;;9.13;7.90;;;;;;;;;;4835333;29;20053;-71
2022/05/22 05:22:30;;;;;;;10.25;7.80;;;;;;;;;;4817917;29;20057;-71
2022/05/22 05:25:13;;;;;;;13.57;8.20;;;;;;;;;;4817674;29;20545;-72
2022/05/22 05:27:44;;;;;;;11.48;7.75;;;;;;;;;;4818246;29;20066;-72
2022/05/22 05:30:20;;;;;;;10.48;7.57;;;;;;;;;;4817970;29;20061;-71
2022/05/22 05:32:56;;;;;;;14.57;7.88;;;;;;;;;;4817614;29;20455;-71
2022/05/22 05:35:45;;;;;;;9.43;7.05;;;;;;;;;;4834491;29;20066;-71
2022/05/22 05:38:28;;;;;;;7.18;6.47;;;;;;;;;;4818000;29;20054;-71
2022/05/22 05:41:30;;;;;;;8.98;7.10;;;;;;;;;;4818455;29;20073;-72
2022/05/22 05:44:05;;;;;;;7.35;6.22;;;;;;;;;;4817537;29;20395;-72
2022/05/22 05:46:46;;;;;;;16.35;7.20;;;;;;;;;;4833337;29;20065;-72
2022/05/22 05:49:17;;;;;;;8.15;5.88;;;;;;;;;;4817438;29;20058;-72
2022/05/22 05:51:57;;;;;;;8.85;6.40;;;;;;;;;;4832796;29;20430;-71
2022/05/22 05:54:48;;;;;;;8.52;6.22;;;;;;;;;;4817747;29;20068;-71
2022/05/22 05:57:39;;;;;;;11.20;6.32;;;;;;;;;;4805248;29;20065;-71
2022/05/22 06:00:11;;;;;;;7.18;6.38;;;;;;;;;;4817920;29;20426;-72
2022/05/22 06:02:44;;;;;;;9.48;5.90;;;;;;;;;;4838114;29;20054;-71
2022/05/22 06:05:15;;;;;;;9.77;5.95;;;;;;;;;;4821009;29;20084;-72
2022/05/22 06:07:49;;;;;;;8.40;5.83;;;;;;;;;;4820963;29;20062;-71
2022/05/22 06:10:23;;;;;;;8.55;6.15;;;;;;;;;;4820602;29;20065;-71
2022/05/22 06:13:11;;;;;;;9.80;6.60;;;;;;;;;;4838066;29;20042;-72
2022/05/22 06:15:43;;;;;;;10.32;6.85;;;;;;;;;;4837561;29;20054;-72
2022/05/22 06:18:14;;;;;;;6.93;6.27;;;;;;;;;;4821284;29;20058;-72
2022/05/22 06:20:44;;;;;;;10.82;7.10;;;;;;;;;;4819835;29;20632;-72
2022/05/22 06:23:21;;;;;;;12.85;8.52;;;;;;;;;;4819351;29;20541;-72
2022/05/22 06:26:21;;;;;;;29.27;9.23;;;;;;;;;;4837248;29;20579;-72
2022/05/22 06:29:14;;;;;;;27.90;9.60;;;;;;;;;;4803655;29;20066;-72
2022/05/22 06:32:12;;;;;;;13.60;9.93;;;;;;;;;;4820647;29;20062;-72
2022/05/22 06:35:10;;;;;;;26.80;9.32;;;;;;;;;;4836478;29;20093;-72
2022/05/22 06:37:54;;;;;;;10.63;8.27;;;;;;;;;;4819588;29;20062;-72
2022/05/22 06:40:53;;;;;;;23.48;9.15;;;;;;;;;;4813690;29;20392;-72
2022/05/22 06:43:42;;;;;;;11.43;9.07;;;;;;;;;;4839124;29;20593;-71
2022/05/22 06:46:30;;;;;;;13.68;8.15;;;;;;;;;;4819900;29;20414;-72
2022/05/22 06:49:26;;;;;;;15.20;7.35;;;;;;;;;;4816259;29;20058;-72
2022/05/22 06:52:20;;;;;;;13.02;8.07;;;;;;;;;;4824243;29;20057;-72
2022/05/22 06:54:56;;;;;;;31.10;8.38;;;;;;;;;;4818895;29;20430;-72
2022/05/22 06:57:45;;;;;;;61.08;9.48;;;;;;;;;;4817187;29;20518;-72
2022/05/22 07:00:41;;;;;;;74.82;9.98;;;;;;;;;;4815759;29;20066;-72
2022/05/22 07:03:30;;;;;;;74.68;8.80;;;;;;;;;;4823552;29;20519;-72
2022/05/22 07:06:21;;;;;;;44.15;7.95;;;;;;;;;;4816743;29;20054;-72
2022/05/22 07:09:10;;;;;;;19.80;6.35;;;;;;;;;;4817282;29;20058;-72
2022/05/22 07:11:59;;;;;;;8.25;6.97;;;;;;;;;;4822497;29;20050;-72
2022/05/22 07:14:36;;;;;;;7.97;6.47;;;;;;;;;;4817652;29;20134;-72
2022/05/22 07:17:08;;;;;;;8.35;6.63;;;;;;;;;;4818644;29;20050;-72
2022/05/22 07:19:44;;;;;;;9.95;6.85;;;;;;;;;;4817175;29;20517;-72
2022/05/22 07:22:38;;;;;;;5.50;4.93;;;;;;;;;;4818380;29;20058;-72
2022/05/22 07:25:30;;;;;;;8.70;6.10;;;;;;;;;;4816653;29;20065;-72
2022/05/22 07:28:25;;;;;;;9.75;5.97;;;;;;;;;;4816206;29;20375;-72
2022/05/22 07:31:24;;;;;;;7.47;5.80;;;;;;;;;;4801050;29;20364;-72
2022/05/22 07:34:27;;;;;;;5.68;4.95;;;;;;;;;;4805944;29;20058;-71
2022/05/22 07:37:08;;;;;;;5.85;4.70;;;;;;;;;;4822223;29;20054;-72
2022/05/22 07:39:56;;;;;;;6.45;4.88;;;;;;;;;;4820722;29;20519;-74
2022/05/22 07:42:44;;;;;;;6.97;5.47;;;;;;;;;;4817718;29;20055;-72
2022/05/22 07:45:39;;;;;;;6.95;5.50;;;;;;;;;;4791687;29;20066;-72
2022/05/22 07:48:23;;;;;;;4.97;4.55;;;;;;;;;;4818568;29;20514;-72
2022/05/22 07:51:00;;;;;;;7.90;5.38;;;;;;;;;;4817325;29;20505;-72
2022/05/22 07:53:49;;;;;;;6.47;5.03;;;;;;;;;;4816424;29;20054;-71
2022/05/22 07:56:46;;;;;;;8.77;5.07;;;;;;;;;;4816354;29;20059;-72
2022/05/22 07:59:39;;;;;;;6.75;5.63;;;;;;;;;;4815382;29;20057;-72
2022/05/22 08:02:28;;;;;;;7.03;5.68;;;;;;;;;;4821910;29;20062;-72
2022/05/22 08:04:59;;;;;;;6.05;5.45;;;;;;;;;;4816075;29;20069;-72
2022/05/22 08:07:44;;;;;;;6.88;6.03;;;;;;;;;;4815305;29;20050;-72
2022/05/22 08:10:40;;;;;;;11.05;5.65;;;;;;;;;;4810398;29;20066;-72
2022/05/22 08:13:16;;;;;;;6.25;5.50;;;;;;;;;;4816015;29;20062;-72
2022/05/22 08:15:46;;;;;;;6.25;5.50;;;;;;;;;;4800563;29;20058;-73
2022/05/22 08:18:27;;;;;;;5.97;5.37;;;;;;;;;;4816055;29;20058;-72
2022/05/22 08:20:58;;;;;;;8.02;5.65;;;;;;;;;;4815734;29;20081;-72
2022/05/22 08:23:29;;;;;;;13.02;4.85;;;;;;;;;;4815513;29;20058;-72
2022/05/22 08:26:07;;;;;;;5.72;4.88;;;;;;;;;;4816091;29;20055;-72
2022/05/22 08:28:44;;;;;;;17.60;5.10;;;;;;;;;;4815181;29;20062;-72
2022/05/22 08:31:14;;;;;;;6.13;5.03;;;;;;;;;;4816016;29;20400;-72
2022/05/22 08:33:50;;;;;;;7.32;5.15;;;;;;;;;;4814799;29;20062;-72
2022/05/22 08:36:20;;;;;;;5.57;4.78;;;;;;;;;;4817679;29;20046;-72
2022/05/22 08:38:50;;;;;;;5.63;4.75;;;;;;;;;;4816741;29;20061;-73
2022/05/22 08:41:23;;;;;;;5.53;5.00;;;;;;;;;;4817603;29;20418;-72
2022/05/22 08:44:14;;;;;;;5.38;4.65;;;;;;;;;;4817633;29;20057;-72
2022/05/22 08:47:16;;;;;;;8.55;4.72;;;;;;;;;;4817399;29;20053;-72
2022/05/22 08:50:01;;;;;;;5.18;4.68;;;;;;;;;;4815672;29;20422;-71
2022/05/22 08:52:39;;;;;;;5.05;4.55;;;;;;;;;;4817092;29;20050;-71
2022/05/22 08:55:16;;;;;;;6.35;4.30;;;;;;;;;;4817088;29;20065;-72
2022/05/22 09:01:10;;;;;;;5.88;4.32;;;;;;;;;;4834930;29;20052;-71
2022/05/22 09:03:50;;;;;;;4.82;4.32;;;;;;;;;;4834956;29;20053;-72
2022/05/22 09:06:31;;;;;;;5.88;5.32;;;;;;;;;;4834754;29;20422;-71
2022/05/22 09:09:02;;;;;;;12.13;4.40;;;;;;;;;;4835299;29;20053;-71
2022/05/22 09:11:44;;;;;;;5.35;4.03;;;;;;;;;;4835613;29;20038;-72
2022/05/22 09:14:24;;;;;;;6.45;4.55;;;;;;;;;;4817814;29;20562;-72
2022/05/22 09:17:17;;;;;;;6.60;4.75;;;;;;;;;;4834884;29;20050;-72
2022/05/22 09:20:09;;;;;;;4.82;4.43;;;;;;;;;;4834978;29;20053;-71
2022/05/22 09:22:58;;;;;;;9.30;4.55;;;;;;;;;;4834178;29;20058;-71
2022/05/22 09:25:46;;;;;;;9.65;5.25;;;;;;;;;;4834708;29;20084;-71
2022/05/22 09:28:31;;;;;;;6.00;4.65;;;;;;;;;;4834114;29;20506;-72
2022/05/22 09:31:44;;;;;;;7.32;4.55;;;;;;;;;;4834618;29;20057;-72
2022/05/22 09:34:15;;;;;;;5.90;5.10;;;;;;;;;;4835886;29;20053;-72
2022/05/22 09:37:09;;;;;;;5.40;4.88;;;;;;;;;;4839071;29;20038;-71
2022/05/22 09:39:48;;;;;;;6.75;4.30;;;;;;;;;;4838249;29;20045;-72
2022/05/22 09:42:46;;;;;;;6.20;4.05;;;;;;;;;;4838841;29;20046;-71
2022/05/22 09:45:47;;;;;;;5.57;4.15;;;;;;;;;;4838002;29;20050;-72
2022/05/22 09:48:45;;;;;;;9.60;3.92;;;;;;;;;;4836570;29;20855;-72
2022/05/22 09:51:48;;;;;;;4.60;3.92;;;;;;;;;;4838458;29;20545;-71
2022/05/22 09:54:42;;;;;;;6.93;4.82;;;;;;;;;;4837918;29;20538;-72
2022/05/22 09:57:44;;;;;;;8.55;4.55;;;;;;;;;;4837923;29;20530;-76
2022/05/22 10:00:17;;;;;;;11.93;5.65;;;;;;;;;;4820718;29;20054;-71
2022/05/22 10:02:59;;;;;;;7.22;5.15;;;;;;;;;;4837834;29;20533;-72
2022/05/22 10:05:40;;;;;;;8.10;4.55;;;;;;;;;;4837615;29;20054;-71
2022/05/22 10:08:28;;;;;;;5.53;4.30;;;;;;;;;;4838637;29;20415;-71
2022/05/22 10:11:10;;;;;;;9.63;4.68;;;;;;;;;;4837689;29;20072;-72
2022/05/22 10:14:25;;;;;;;6.72;4.68;;;;;;;;;;4820068;29;20081;-73
2022/05/22 10:17:26;;;;;;;6.97;4.82;;;;;;;;;;4837492;29;20076;-72
2022/05/22 10:20:12;;;;;;;7.15;4.85;;;;;;;;;;4838067;29;20058;-71
2022/05/22 10:23:16;;;;;;;10.88;4.70;;;;;;;;;;4837500;29;20056;-74
2022/05/22 10:26:06;;;;;;;8.70;4.70;;;;;;;;;;4837163;29;20057;-72
2022/05/22 10:28:45;;;;;;;6.80;4.65;;;;;;;;;;4837231;29;20054;-72
2022/05/22 10:31:33;;;;;;;4.97;4.22;;;;;;;;;;4836253;29;20062;-72
2022/05/22 10:34:25;;;;;;;4.30;3.88;;;;;;;;;;4837507;29;20054;-73
2022/05/22 10:36:57;;;;;;;;;;;;;;;;;;4837680;29;20076;-72
2022/05/22 10:39:27;;;;;;;4.57;3.88;;;;;;;;;;4836760;29;20320;-72
2022/05/22 10:42:49;;;;;;;4.65;4.00;;;;;;;;;;4837507;29;20054;-72
2022/05/22 10:45:23;;;;;;;4.55;4.13;;;;;;;;;;4808167;29;20081;-73
2022/05/22 10:48:05;;;;;;;7.75;4.85;;;;;;;;;;4836583;29;20050;-72
2022/05/22 10:50:36;;;;;;;5.10;3.97;;;;;;;;;;4819562;29;20054;-72
2022/05/22 10:53:40;;;;;;;5.15;4.50;;;;;;;;;;4820421;29;20062;-73
2022/05/22 10:56:29;;;;;;;6.30;4.32;;;;;;;;;;4837043;29;20062;-72
2022/05/22 10:59:22;;;;;;;5.75;4.00;;;;;;;;;;4836491;29;20077;-72
2022/05/22 11:02:03;;;;;;;4.80;4.30;;;;;;;;;;4828972;29;20545;-73
2022/05/22 11:04:36;;;;;;;;;;;;;;;;;;4836736;29;20525;-73
2022/05/22 11:07:09;;;;;;;6.95;3.75;;;;;;;;;;4836191;29;19931;-72
2022/05/22 11:09:45;;;;;;;;;;;;;;;;;;4837043;29;20045;-72
2022/05/22 11:12:20;;;;;;;4.55;3.95;;;;;;;;;;4835765;29;19929;-72
2022/05/22 11:14:50;;;;;;;7.18;3.92;;;;;;;;;;4836238;29;20061;-72
2022/05/22 11:17:24;;;;;;;8.80;5.03;;;;;;;;;;4804740;29;20062;-72
2022/05/22 11:19:57;;;;;;;10.40;4.93;;;;;;;;;;4836801;29;20046;-73
2022/05/22 11:22:42;;;;;;;8.60;4.57;;;;;;;;;;4837044;29;20062;-74
2022/05/22 11:25:34;;;;;;;5.30;4.65;;;;;;;;;;4836832;29;20444;-72
2022/05/22 11:28:14;;;;;;;7.85;4.43;;;;;;;;;;4821163;29;20046;-71
2022/05/22 11:30:53;;;;;;;8.40;4.55;;;;;;;;;;4835332;29;20046;-73
2022/05/22 11:33:57;;;;;;;5.03;4.07;;;;;;;;;;4835621;29;20062;-72
2022/05/22 11:36:58;;;;;;;18.23;3.97;;;;;;;;;;4836949;29;20069;-72
2022/05/22 11:40:05;;;;;;;6.40;4.00;;;;;;;;;;4836320;29;20066;-72
2022/05/22 11:42:40;;;;;;;4.78;4.00;;;;;;;;;;4820208;29;20050;-73
2022/05/22 11:45:32;;;;;;;16.42;4.57;;;;;;;;;;4835711;29;20045;-71
2022/05/22 11:48:41;;;;;;;6.75;4.05;;;;;;;;;;4835152;29;20054;-73
2022/05/22 11:51:56;;;;;;;10.93;3.30;;;;;;;;;;4830343;29;20062;-72
2022/05/22 11:55:01;;;;;;;3.80;3.05;;;;;;;;;;4809522;29;20073;-73
2022/05/22 11:58:09;;;;;;;6.63;3.38;;;;;;;;;;4813156;29;20415;-72
2022/05/22 12:01:14;;;;;;;3.97;3.58;;;;;;;;;;4836137;29;20061;-72
2022/05/22 12:04:08;;;;;;;6.28;4.20;;;;;;;;;;4835823;29;20049;-72
2022/05/22 12:06:56;;;;;;;8.73;3.63;;;;;;;;;;4835772;29;20050;-72
2022/05/22 12:10:01;;;;;;;4.32;3.50;;;;;;;;;;4818476;29;20061;-73
2022/05/22 12:12:49;;;;;;;5.18;3.88;;;;;;;;;;4824694;29;20065;-72
2022/05/22 12:15:42;;;;;;;5.18;3.65;;;;;;;;;;4836099;29;20514;-72
2022/05/22 12:18:55;;;;;;;9.07;3.65;;;;;;;;;;4835712;29;20054;-73
2022/05/22 12:21:43;;;;;;;3.75;3.25;;;;;;;;;;4834490;29;20061;-73
2022/05/22 12:24:31;;;;;;;13.23;4.25;;;;;;;;;;4818771;29;20058;-72
2022/05/22 12:27:13;;;;;;;6.00;3.78;;;;;;;;;;4835545;29;20050;-74
2022/05/22 12:30:08;;;;;;;5.30;3.58;;;;;;;;;;4836142;29;20054;-74
2022/05/22 12:32:49;;;;;;;11.25;3.85;;;;;;;;;;4836044;29;20072;-74
2022/05/22 12:35:20;;;;;;;11.27;4.47;;;;;;;;;;4836592;29;20050;-73
2022/05/22 12:38:00;;;;;;;5.28;3.53;;;;;;;;;;4836264;29;20122;-73
2022/05/22 12:40:47;;;;;;;7.78;3.78;;;;;;;;;;4835282;29;20061;-73
2022/05/22 12:43:19;;;;;;;8.05;3.97;;;;;;;;;;4835836;29;20550;-72
2022/05/22 12:46:01;;;;;;;11.02;3.92;;;;;;;;;;4836044;29;20062;-76
2022/05/22 12:48:34;;;;;;;6.85;4.20;;;;;;;;;;4835893;29;20058;-73
2022/05/22 12:51:44;;;;;;;7.43;3.88;;;;;;;;;;4835884;29;20058;-77
2022/05/22 12:54:26;;;;;;;7.45;4.15;;;;;;;;;;4760105;30;20059;-73
2022/05/22 12:57:13;;;;;;;5.22;4.15;;;;;;;;;;4760876;30;20071;-73
2022/05/22 12:59:58;;;;;;;6.35;4.50;;;;;;;;;;4802851;29;20077;-75
2022/05/22 13:02:35;;;;;;;8.88;4.82;;;;;;;;;;4817542;29;20845;-73
2022/05/22 13:05:22;;;;;;;8.10;4.57;;;;;;;;;;4817103;29;20061;-74
2022/05/22 13:07:53;;;;;;;6.70;4.10;;;;;;;;;;4817015;29;20062;-72
2022/05/22 13:10:25;;;;;;;5.13;3.95;;;;;;;;;;4817284;29;20053;-75
2022/05/22 13:13:00;;;;;;;5.25;3.95;;;;;;;;;;4820440;29;20054;-74
2022/05/22 13:15:33;;;;;;;11.25;6.38;;;;;;;;;;4820913;29;20533;-74
2022/05/22 13:18:13;;;;;;;8.43;3.72;;;;;;;;;;4820476;29;20057;-74
2022/05/22 13:20:52;;;;;;;5.13;4.15;;;;;;;;;;4821117;29;20445;-75
2022/05/22 13:23:23;;;;;;;14.57;6.53;;;;;;;;;;4821125;29;20440;-75
2022/05/22 13:25:55;;;;;;;8.45;6.40;;;;;;;;;;4804304;29;20057;-74
2022/05/22 13:28:29;;;;;;;6.95;5.80;;;;;;;;;;4803640;29;20058;-75
2022/05/22 13:31:08;;;;;;;6.32;5.60;;;;;;;;;;4821091;29;20050;-80
2022/05/22 13:33:48;;;;;;;7.90;5.35;;;;;;;;;;4803548;29;20098;-78
2022/05/22 13:36:25;;;;;;;6.47;5.07;;;;;;;;;;4820704;29;20050;-75
2022/05/22 13:38:58;;;;;;;9.65;4.68;;;;;;;;;;4820401;29;20490;-75
2022/05/22 13:42:01;;;;;;;5.50;4.30;;;;;;;;;;4820537;29;20054;-78
2022/05/22 13:44:53;;;;;;;7.13;5.57;;;;;;;;;;4820639;29;20055;-77
2022/05/22 13:47:42;;;;;;;7.45;5.47;;;;;;;;;;4804332;29;20054;-75
2022/05/22 13:53:28;;;;;;;12.35;8.52;;;;;;;;;;4820029;29;20062;-75
2022/05/22 13:55:59;;;;;;;12.15;8.52;;;;;;;;;;4819781;29;20542;-75
2022/05/22 13:58:39;;;;;;;11.02;8.38;;;;;;;;;;4829910;29;20065;-75
2022/05/22 14:01:16;;;;;;;8.77;7.82;;;;;;;;;;4835939;29;20083;-74
2022/05/22 14:04:00;;;;;;;13.20;6.68;;;;;;;;;;4837893;29;20073;-74
2022/05/22 14:06:34;;;;;;;14.57;5.57;;;;;;;;;;4838003;29;20049;-75
2022/05/22 14:09:06;;;;;;;10.20;4.88;;;;;;;;;;4838416;29;20506;-75
2022/05/22 14:11:38;;;;;;;7.07;4.15;;;;;;;;;;4837043;29;20069;-74
2022/05/22 14:14:18;;;;;;;9.82;4.05;;;;;;;;;;4836242;29;20050;-78
2022/05/22 14:16:59;;;;;;;7.07;4.20;;;;;;;;;;4836744;29;20057;-74
2022/05/22 14:19:38;;;;;;;9.27;4.40;;;;;;;;;;4837480;29;20053;-74
2022/05/22 14:22:20;;;;;;;13.75;4.15;;;;;;;;;;4836814;29;20537;-74
2022/05/22 14:24:54;;;;;;;10.57;4.32;;;;;;;;;;4821265;29;20053;-77
2022/05/22 14:27:32;;;;;;;5.40;4.25;;;;;;;;;;4838254;29;20434;-74
2022/05/22 14:30:29;;;;;;;6.05;3.85;;;;;;;;;;4837883;29;20057;-73
2022/05/22 14:33:23;;;;;;;8.30;3.78;;;;;;;;;;4837406;29;20057;-74
2022/05/22 14:36:09;;;;;;;9.40;3.83;;;;;;;;;;4837185;29;20057;-73
2022/05/22 14:38:42;;;;;;;11.43;4.18;;;;;;;;;;4837195;29;20046;-73
2022/05/22 14:41:25;;;;;;;7.07;3.92;;;;;;;;;;4837044;29;20097;-74
2022/05/22 14:44:06;;;;;;;6.32;3.85;;;;;;;;;;4837986;29;20050;-74
2022/05/22 14:46:36;;;;;;;5.63;3.50;;;;;;;;;;4837128;29;20053;-74
2022/05/22 14:49:14;;;;;;;10.00;3.70;;;;;;;;;;4836919;29;20050;-73
2022/05/22 14:52:19;;;;;;;6.13;3.55;;;;;;;;;;4837295;29;20069;-74
2022/05/22 14:55:08;;;;;;;5.68;3.60;;;;;;;;;;4835683;29;20061;-75
2022/05/22 14:58:12;;;;;;;5.65;3.13;;;;;;;;;;4837245;29;20057;-73
2022/05/22 15:00:52;;;;;;;5.47;3.40;;;;;;;;;;4837028;29;20046;-73
2022/05/22 15:03:32;;;;;;;10.20;3.05;;;;;;;;;;4837156;29;20054;-73
2022/05/22 15:06:06;;;;;;;8.13;4.00;;;;;;;;;;4837406;29;20054;-73
2022/05/22 15:08:49;;;;;;;7.35;2.90;;;;;;;;;;4837223;29;20061;-75
2022/05/22 15:11:29;;;;;;;9.85;3.22;;;;;;;;;;4837641;29;20057;-73
2022/05/22 15:14:18;;;;;;;3.85;2.17;;;;;;;;;;4837498;29;20054;-73
2022/05/22 15:16:49;;;;;;;3.35;2.53;;;;;;;;;;4837280;29;20056;-73
2022/05/22 15:25:47;;;;;;;2.92;2.30;;;;;;;;;;4761797;30;20056;-74
2022/05/22 15:28:20;;;;;;;2.97;2.30;;;;;;;;;;4760731;30;20497;-73
2022/05/22 15:30:59;;;;;;;5.32;2.50;;;;;;;;;;4813587;29;20053;-73
2022/05/22 15:33:47;;;;;;;12.50;2.90;;;;;;;;;;4834765;29;21043;-73
2022/05/22 15:36:22;;;;;;;4.15;2.38;;;;;;;;;;4836294;29;20046;-73
2022/05/22 15:39:06;;;;;;;5.18;2.47;;;;;;;;;;4836021;29;20061;-73
2022/05/22 15:41:42;;;;;;;5.63;2.60;;;;;;;;;;4837340;29;20038;-73
2022/05/22 15:44:15;;;;;;;6.85;2.75;;;;;;;;;;4836380;29;20093;-74
2022/05/22 15:46:48;;;;;;;5.25;2.50;;;;;;;;;;4836398;29;20053;-74
2022/05/22 15:52:10;;;;;;;5.55;3.42;;;;;;;;;;4836098;29;20056;-74
2022/05/22 15:54:42;;;;;;;5.80;4.00;;;;;;;;;;4818510;29;20082;-74
2022/05/22 15:57:13;;;;;;;4.70;4.00;;;;;;;;;;4839689;29;20061;-74
2022/05/22 15:59:48;;;;;;;6.15;3.78;;;;;;;;;;4835526;29;20054;-73
2022/05/22 16:02:29;;;;;;;3.88;3.42;;;;;;;;;;4836561;29;20466;-75
2022/05/22 16:04:59;;;;;;;;;;;;;;;;;;4836935;29;20057;-74
2022/05/22 16:07:32;;;;;;;4.03;3.22;;;;;;;;;;4836635;29;20285;-74
2022/05/22 16:10:03;;;;;;;6.72;3.42;;;;;;;;;;4836103;29;20070;-73
2022/05/22 16:12:33;;;;;;;6.75;3.28;;;;;;;;;;4836065;29;20415;-74
2022/05/22 16:15:04;;;;;;;7.75;3.05;;;;;;;;;;4835436;29;20546;-73
2022/05/22 16:17:34;;;;;;;6.80;3.30;;;;;;;;;;4834955;29;20054;-74